Time;durP1;ratioP1;P1;durP2;ratioP2;P2;SDS_P1;SDS_P2;PMS_P1;PMS_P2;Temp;Humidity;BMP_temperature;BMP_pressure;BME280_temperature;BME280_humidity;BME280_pressure;Samples;Min_cycle;Max_cycle;Signal;HPM_P1;HPM_P2
2021/01/24 00:00:32;;;;;;;1.40;1.40;;;8.90;59.20;;;;;;2093136;28;20888;-59
2021/01/24 00:01:53;;;;;;;1.73;1.65;;;8.90;59.20;;;;;;2095142;28;20020;-59
2021/01/24 00:03:15;;;;;;;1.70;1.60;;;8.90;59.20;;;;;;2095940;28;20111;-59
2021/01/24 00:04:36;;;;;;;1.55;1.48;;;8.90;59.20;;;;;;2095347;28;20056;-58
2021/01/24 00:05:57;;;;;;;2.30;1.70;;;8.80;59.00;;;;;;2094323;28;20055;-60
2021/01/24 00:07:18;;;;;;;1.50;1.50;;;8.80;58.90;;;;;;2090789;28;20055;-58
2021/01/24 00:08:39;;;;;;;1.88;1.77;;;8.80;58.90;;;;;;2095937;28;20028;-58
2021/01/24 00:10:00;;;;;;;1.45;1.35;;;8.80;58.80;;;;;;2090915;28;20048;-58
2021/01/24 00:11:22;;;;;;;1.52;1.50;;;8.70;58.80;;;;;;2083061;28;20038;-59
2021/01/24 00:12:44;;;;;;;2.10;1.80;;;8.70;58.80;;;;;;2094922;28;20068;-58
2021/01/24 00:14:05;;;;;;;1.35;1.35;;;8.70;58.80;;;;;;2094970;28;20020;-58
2021/01/24 00:15:26;;;;;;;1.98;1.88;;;8.70;58.70;;;;;;2083492;28;20029;-58
2021/01/24 00:16:47;;;;;;;1.60;1.50;;;8.60;58.70;;;;;;2093095;28;20028;-58
2021/01/24 00:18:08;;;;;;;1.50;1.40;;;8.60;58.70;;;;;;2095586;28;20029;-58
2021/01/24 00:19:29;;;;;;;1.30;1.30;;;8.60;58.70;;;;;;2092639;28;20809;-60
2021/01/24 00:20:50;;;;;;;1.60;1.50;;;8.50;58.60;;;;;;2095469;28;20056;-60
2021/01/24 00:22:11;;;;;;;1.90;1.80;;;8.50;58.60;;;;;;2096751;28;20105;-58
2021/01/24 00:23:32;;;;;;;1.75;1.67;;;8.40;58.60;;;;;;2093579;28;20375;-61
2021/01/24 00:24:53;;;;;;;1.95;1.85;;;8.40;58.60;;;;;;2094942;28;20044;-58
2021/01/24 00:26:13;;;;;;;1.75;1.65;;;8.40;58.60;;;;;;2095803;28;20090;-58
2021/01/24 00:27:34;;;;;;;1.80;1.70;;;8.40;58.70;;;;;;2093532;28;20036;-58
2021/01/24 00:28:55;;;;;;;2.42;2.22;;;8.30;58.80;;;;;;2095661;28;20407;-58
2021/01/24 00:30:18;;;;;;;2.85;2.65;;;8.30;58.90;;;;;;2090831;28;20051;-58
2021/01/24 00:31:40;;;;;;;3.20;3.00;;;8.20;59.00;;;;;;2093060;28;20050;-59
2021/01/24 00:33:01;;;;;;;3.40;3.20;;;8.20;59.10;;;;;;2097202;28;20115;-60
2021/01/24 00:34:22;;;;;;;4.50;4.10;;;8.10;59.20;;;;;;2096176;28;20033;-58
2021/01/24 00:35:43;;;;;;;4.68;4.30;;;8.10;59.20;;;;;;2096734;28;20033;-61
2021/01/24 00:37:03;;;;;;;5.20;4.80;;;8.10;59.20;;;;;;2095883;28;20086;-60
2021/01/24 00:38:24;;;;;;;5.95;5.45;;;8.00;59.20;;;;;;2091399;28;20522;-60
2021/01/24 00:39:45;;;;;;;6.18;5.68;;;8.00;59.20;;;;;;2095348;28;20033;-60
2021/01/24 00:41:06;;;;;;;6.50;5.90;;;7.90;59.20;;;;;;2095402;28;20406;-61
2021/01/24 00:42:27;;;;;;;6.93;6.28;;;7.90;59.40;;;;;;2097919;28;20481;-60
2021/01/24 00:43:48;;;;;;;6.75;6.05;;;7.80;59.20;;;;;;2095628;28;20022;-61
2021/01/24 00:45:10;;;;;;;6.88;6.20;;;7.80;59.20;;;;;;2094372;28;20017;-61
2021/01/24 00:46:30;;;;;;;7.35;6.65;;;7.80;59.30;;;;;;2093684;28;20123;-61
2021/01/24 00:47:51;;;;;;;6.43;5.82;;;7.70;59.40;;;;;;2096157;28;20104;-61
2021/01/24 00:49:12;;;;;;;6.35;5.75;;;7.60;59.30;;;;;;2095758;28;20481;-61
2021/01/24 00:50:33;;;;;;;6.55;5.95;;;7.60;59.50;;;;;;2094129;28;20063;-58
2021/01/24 00:51:54;;;;;;;6.78;6.18;;;7.50;59.50;;;;;;2095290;28;20024;-60
2021/01/24 00:53:15;;;;;;;5.95;5.38;;;7.50;59.60;;;;;;2089248;28;20056;-59
2021/01/24 00:54:36;;;;;;;5.78;5.38;;;7.40;59.90;;;;;;2084570;28;20045;-60
2021/01/24 00:55:57;;;;;;;6.03;5.53;;;7.30;59.80;;;;;;2094026;28;20017;-59
2021/01/24 00:57:18;;;;;;;6.55;5.97;;;7.30;59.80;;;;;;2090115;28;20069;-59
2021/01/24 00:58:39;;;;;;;5.65;5.15;;;7.20;59.90;;;;;;2086740;28;20111;-59
2021/01/24 01:00:00;;;;;;;5.38;4.88;;;7.10;60.00;;;;;;2091885;28;20032;-58
2021/01/24 01:01:21;;;;;;;5.28;4.78;;;7.10;60.10;;;;;;2092394;28;20044;-58
2021/01/24 01:02:42;;;;;;;5.82;5.32;;;7.00;60.20;;;;;;2096950;28;20035;-60
2021/01/24 01:04:03;;;;;;;5.50;5.00;;;6.90;60.40;;;;;;2094026;28;20481;-59
2021/01/24 01:05:24;;;;;;;5.68;5.05;;;6.90;60.40;;;;;;2091860;28;20631;-59
2021/01/24 01:06:44;;;;;;;5.20;4.80;;;6.80;60.40;;;;;;2096865;28;20029;-59
2021/01/24 01:08:06;;;;;;;4.47;4.07;;;6.70;60.50;;;;;;2088832;28;20036;-59
2021/01/24 01:09:27;;;;;;;4.35;4.00;;;6.70;60.60;;;;;;2095033;28;20094;-59
2021/01/24 01:10:48;;;;;;;3.67;3.47;;;6.60;60.60;;;;;;2094645;28;20056;-58
2021/01/24 01:12:09;;;;;;;3.90;3.60;;;6.50;60.80;;;;;;2097221;28;20029;-59
2021/01/24 01:13:29;;;;;;;3.40;3.20;;;6.50;60.90;;;;;;2102152;28;20036;-59
2021/01/24 01:14:50;;;;;;;3.00;2.80;;;6.40;61.00;;;;;;2097262;28;20222;-58
2021/01/24 01:16:11;;;;;;;3.30;3.10;;;6.30;61.10;;;;;;2099285;28;20035;-59
2021/01/24 01:17:32;;;;;;;3.05;2.85;;;6.20;61.20;;;;;;2093751;28;20017;-58
2021/01/24 01:18:53;;;;;;;2.40;2.30;;;6.20;61.50;;;;;;2096339;28;20036;-58
2021/01/24 01:20:14;;;;;;;2.40;2.30;;;6.10;61.60;;;;;;2098630;28;20051;-56
2021/01/24 01:21:35;;;;;;;2.47;2.38;;;6.10;61.80;;;;;;2093513;28;20093;-57
2021/01/24 01:22:56;;;;;;;1.88;1.77;;;6.00;61.80;;;;;;2097512;28;20032;-58
2021/01/24 01:24:17;;;;;;;2.00;1.90;;;6.00;62.00;;;;;;2094714;28;20024;-59
2021/01/24 01:25:38;;;;;;;2.10;2.00;;;5.90;62.20;;;;;;2098924;28;20029;-60
2021/01/24 01:26:59;;;;;;;2.30;2.20;;;5.80;62.30;;;;;;2098602;28;20692;-60
2021/01/24 01:28:20;;;;;;;2.35;2.25;;;5.80;62.60;;;;;;2093319;28;20372;-59
2021/01/24 01:29:41;;;;;;;2.17;2.08;;;5.70;62.70;;;;;;2094551;28;20036;-60
2021/01/24 01:31:02;;;;;;;2.08;1.98;;;5.70;62.90;;;;;;2097291;28;20037;-59
2021/01/24 01:32:23;;;;;;;2.10;2.00;;;5.60;63.00;;;;;;2092793;28;20020;-59
2021/01/24 01:33:44;;;;;;;1.98;1.90;;;5.60;63.30;;;;;;2098203;28;20024;-59
2021/01/24 01:35:07;;;;;;;1.67;1.63;;;5.50;63.50;;;;;;2096452;28;20052;-61
2021/01/24 01:36:27;;;;;;;2.03;1.92;;;5.50;63.80;;;;;;2094337;28;20036;-59
2021/01/24 01:37:48;;;;;;;1.77;1.67;;;5.50;64.00;;;;;;2097456;28;20028;-59
2021/01/24 01:39:09;;;;;;;1.90;1.80;;;5.40;64.00;;;;;;2098199;28;20467;-59
2021/01/24 01:40:30;;;;;;;2.00;1.90;;;5.40;64.20;;;;;;2093891;28;20478;-61
2021/01/24 01:41:51;;;;;;;1.80;1.70;;;5.30;64.40;;;;;;2097845;28;20040;-60
2021/01/24 01:43:12;;;;;;;1.85;1.75;;;5.30;64.70;;;;;;2098359;28;20031;-60
2021/01/24 01:44:33;;;;;;;1.70;1.60;;;5.30;65.00;;;;;;2095744;28;20122;-60
2021/01/24 01:45:54;;;;;;;1.65;1.63;;;5.20;65.10;;;;;;2098829;28;20036;-60
2021/01/24 01:47:22;;;;;;;2.67;1.65;;;5.20;65.10;;;;;;2098614;28;20036;-62
2021/01/24 01:48:43;;;;;;;2.10;2.00;;;5.20;65.40;;;;;;2096452;28;20036;-59
2021/01/24 01:50:04;;;;;;;2.38;2.17;;;5.20;65.30;;;;;;2097093;28;20036;-61
2021/01/24 01:51:26;;;;;;;1.85;1.75;;;5.20;65.50;;;;;;2094410;28;20159;-61
2021/01/24 01:52:47;;;;;;;2.10;2.00;;;5.10;65.60;;;;;;2097707;28;20368;-59
2021/01/24 01:54:08;;;;;;;1.88;1.77;;;5.10;65.70;;;;;;2097162;28;20461;-61
2021/01/24 01:55:29;;;;;;;2.00;1.90;;;5.10;65.80;;;;;;2095874;28;20032;-61
2021/01/24 01:56:53;;;;;;;1.98;1.85;;;5.10;66.00;;;;;;2097660;28;20091;-61
2021/01/24 01:58:14;;;;;;;2.40;1.95;;;5.10;66.10;;;;;;2105340;28;20023;-61
2021/01/24 01:59:35;;;;;;;1.77;1.77;;;5.00;66.10;;;;;;2095538;28;20035;-61
2021/01/24 02:00:57;;;;;;;2.58;1.60;;;5.10;66.00;;;;;;2096796;28;20043;-59
2021/01/24 02:02:42;;;;;;;2.25;2.00;;;5.00;66.10;;;;;;2093207;28;20204;-61
2021/01/24 02:04:11;;;;;;;1.50;1.50;;;5.00;66.80;;;;;;2096813;28;20431;-58
2021/01/24 02:05:45;;;;;;;1.65;1.63;;;5.00;66.40;;;;;;2097279;28;20030;-61
2021/01/24 02:07:15;;;;;;;1.58;1.58;;;5.00;66.40;;;;;;2097413;28;20082;-60
2021/01/24 02:08:44;;;;;;;1.65;1.65;;;5.00;66.40;;;;;;2096631;28;20512;-61
2021/01/24 02:10:12;;;;;;;2.00;1.75;;;4.90;66.30;;;;;;2100868;28;20059;-60
2021/01/24 02:12:16;;;;;;;1.50;1.50;;;4.90;66.50;;;;;;2098946;28;20621;-58
2021/01/24 02:13:55;;;;;;;1.48;1.48;;;4.90;67.20;;;;;;2078546;28;20475;-61
2021/01/24 02:15:19;;;;;;;1.40;1.40;;;4.90;66.90;;;;;;2096683;28;20075;-61
2021/01/24 02:16:40;;;;;;;2.75;1.45;;;4.90;66.30;;;;;;2099295;28;20054;-61
2021/01/24 02:18:09;;;;;;;1.50;1.50;;;4.90;66.50;;;;;;2099149;28;20025;-62
2021/01/24 02:19:58;;;;;;;1.98;1.67;;;4.90;67.00;;;;;;2094774;28;20021;-61
2021/01/24 02:21:41;;;;;;;2.70;1.50;;;4.80;67.30;;;;;;2092770;28;20040;-63
2021/01/24 02:23:02;;;;;;;1.80;1.70;;;4.80;67.50;;;;;;2098496;28;20033;-63
2021/01/24 02:24:26;;;;;;;1.50;1.40;;;4.90;66.90;;;;;;2094930;28;20044;-62
2021/01/24 02:26:12;;;;;;;1.60;1.50;;;4.80;67.00;;;;;;2098501;28;20032;-62
2021/01/24 02:27:40;;;;;;;1.63;1.60;;;4.80;67.20;;;;;;2095252;28;20360;-63
2021/01/24 02:29:07;;;;;;;1.88;1.77;;;4.80;67.10;;;;;;2098670;28;20040;-62
2021/01/24 02:30:35;;;;;;;1.98;1.88;;;4.80;67.10;;;;;;2095361;28;20029;-62
2021/01/24 02:31:59;;;;;;;2.10;2.00;;;4.80;67.30;;;;;;2097851;28;20042;-62
2021/01/24 02:33:27;;;;;;;2.13;2.03;;;4.80;68.00;;;;;;2097946;28;20463;-63
2021/01/24 02:34:51;;;;;;;1.70;1.60;;;4.80;67.40;;;;;;2092323;28;20361;-63
2021/01/24 02:36:12;;;;;;;1.70;1.60;;;4.70;67.30;;;;;;2098143;28;20036;-63
2021/01/24 02:37:34;;;;;;;1.95;1.85;;;4.80;67.40;;;;;;2094334;28;20094;-64
2021/01/24 02:38:57;;;;;;;2.00;1.90;;;4.70;67.50;;;;;;2096690;28;20032;-64
2021/01/24 02:40:18;;;;;;;2.22;2.13;;;4.70;67.70;;;;;;2098190;28;20473;-64
2021/01/24 02:41:39;;;;;;;2.28;2.17;;;4.70;67.80;;;;;;2099177;28;20086;-64
2021/01/24 02:43:03;;;;;;;2.20;2.10;;;4.70;67.70;;;;;;2099513;28;20023;-64
2021/01/24 02:44:25;;;;;;;2.22;2.13;;;4.70;67.90;;;;;;2094366;28;20040;-64
2021/01/24 02:45:48;;;;;;;2.17;2.00;;;4.70;68.00;;;;;;2095973;28;20075;-64
2021/01/24 02:47:10;;;;;;;2.60;2.40;;;4.70;68.10;;;;;;2097136;28;20028;-61
2021/01/24 02:48:31;;;;;;;1.88;1.77;;;4.70;68.40;;;;;;2097794;28;20039;-63
2021/01/24 02:49:53;;;;;;;2.22;2.13;;;4.70;68.20;;;;;;2097609;28;20035;-63
2021/01/24 02:51:14;;;;;;;2.47;2.30;;;4.70;68.10;;;;;;2097296;28;20367;-64
2021/01/24 02:52:36;;;;;;;2.03;1.92;;;4.70;68.10;;;;;;2095149;28;20033;-62
2021/01/24 02:53:58;;;;;;;2.20;2.10;;;4.70;68.30;;;;;;2099161;28;20025;-64
2021/01/24 02:55:19;;;;;;;2.03;1.92;;;4.70;68.40;;;;;;2096278;28;20356;-62
2021/01/24 02:56:40;;;;;;;2.05;1.98;;;4.70;68.40;;;;;;2095856;28;20123;-62
2021/01/24 02:58:01;;;;;;;2.05;1.95;;;4.70;68.50;;;;;;2100034;28;20083;-62
2021/01/24 02:59:23;;;;;;;2.30;2.20;;;4.70;68.60;;;;;;2097866;28;20422;-64
2021/01/24 03:00:44;;;;;;;2.45;2.25;;;4.70;68.40;;;;;;2099839;28;20028;-64
2021/01/24 03:02:05;;;;;;;2.30;2.20;;;4.70;68.60;;;;;;2096272;28;20064;-63
2021/01/24 03:03:26;;;;;;;2.80;2.60;;;4.70;68.60;;;;;;2099709;28;20025;-63
2021/01/24 03:04:47;;;;;;;2.88;2.67;;;4.70;68.70;;;;;;2096183;28;20028;-62
2021/01/24 03:06:09;;;;;;;2.78;2.58;;;4.70;68.70;;;;;;2084562;28;20037;-63
2021/01/24 03:07:30;;;;;;;2.45;2.35;;;4.70;68.80;;;;;;2091088;28;20048;-63
2021/01/24 03:08:52;;;;;;;3.05;2.83;;;4.70;68.90;;;;;;2097251;28;20086;-62
2021/01/24 03:10:13;;;;;;;2.65;2.55;;;4.70;69.00;;;;;;2097591;28;20040;-60
2021/01/24 03:11:36;;;;;;;2.85;2.65;;;4.70;69.10;;;;;;2096257;28;20042;-61
2021/01/24 03:13:09;;;;;;;2.75;2.55;;;4.70;69.10;;;;;;2098315;28;20036;-60
2021/01/24 03:14:32;;;;;;;2.63;2.50;;;4.70;69.30;;;;;;2095260;28;20040;-60
2021/01/24 03:15:54;;;;;;;2.80;2.60;;;4.80;69.10;;;;;;2097245;28;20083;-60
2021/01/24 03:17:16;;;;;;;2.95;2.75;;;4.80;69.10;;;;;;2091075;28;20380;-61
2021/01/24 03:18:40;;;;;;;3.63;3.40;;;4.80;69.00;;;;;;2089324;28;20025;-61
2021/01/24 03:20:04;;;;;;;3.67;3.38;;;4.80;69.20;;;;;;2095513;28;20090;-61
2021/01/24 03:21:26;;;;;;;3.97;3.67;;;4.80;69.20;;;;;;2092688;28;20395;-61
2021/01/24 03:22:50;;;;;;;4.43;3.78;;;4.70;69.10;;;;;;2097710;28;20086;-61
2021/01/24 03:24:13;;;;;;;4.38;3.97;;;4.80;69.90;;;;;;2094996;28;20037;-59
2021/01/24 03:25:37;;;;;;;3.80;3.45;;;4.80;69.90;;;;;;2099226;28;20032;-59
2021/01/24 03:26:58;;;;;;;4.32;3.92;;;4.80;69.30;;;;;;2098299;28;20090;-59
2021/01/24 03:28:19;;;;;;;4.25;3.85;;;4.80;69.30;;;;;;2098726;28;20094;-59
2021/01/24 03:29:40;;;;;;;3.80;3.50;;;4.80;70.00;;;;;;2094905;28;20676;-59
2021/01/24 03:31:08;;;;;;;4.43;4.10;;;4.80;69.30;;;;;;2097042;28;20418;-59
2021/01/24 03:32:29;;;;;;;4.80;4.40;;;4.80;69.50;;;;;;2093728;28;20028;-60
2021/01/24 03:33:52;;;;;;;6.32;4.97;;;4.80;69.30;;;;;;2097056;28;20028;-59
2021/01/24 03:35:13;;;;;;;4.50;4.10;;;4.80;69.40;;;;;;2103162;28;20103;-59
2021/01/24 03:36:34;;;;;;;5.13;4.63;;;4.80;69.30;;;;;;2094449;28;20027;-60
2021/01/24 03:37:55;;;;;;;4.50;4.10;;;4.80;69.40;;;;;;2097224;28;20013;-60
2021/01/24 03:39:17;;;;;;;4.47;4.07;;;4.80;69.40;;;;;;2091188;28;20017;-59
2021/01/24 03:40:37;;;;;;;4.30;3.90;;;4.80;69.40;;;;;;2097716;28;20020;-61
2021/01/24 03:41:58;;;;;;;4.18;3.80;;;4.80;69.30;;;;;;2098012;28;20028;-59
2021/01/24 03:43:19;;;;;;;3.60;3.30;;;4.80;69.50;;;;;;2092010;28;20161;-60
2021/01/24 03:44:40;;;;;;;3.90;3.50;;;4.80;69.50;;;;;;2095176;28;20023;-59
2021/01/24 03:46:01;;;;;;;3.35;3.05;;;4.80;69.30;;;;;;2087137;28;20043;-60
2021/01/24 03:47:22;;;;;;;3.72;3.42;;;4.80;69.40;;;;;;2089526;28;20064;-60
2021/01/24 03:48:43;;;;;;;3.80;3.47;;;4.90;69.60;;;;;;2097429;28;20555;-60
2021/01/24 03:50:05;;;;;;;3.40;3.20;;;4.80;69.60;;;;;;2095941;28;20042;-60
2021/01/24 03:51:27;;;;;;;4.03;3.63;;;4.80;69.60;;;;;;2098972;28;20025;-59
2021/01/24 03:52:48;;;;;;;4.40;3.22;;;4.90;69.60;;;;;;2097001;28;20032;-59
2021/01/24 03:54:09;;;;;;;3.60;3.30;;;4.90;69.60;;;;;;2095297;28;20017;-60
2021/01/24 03:55:30;;;;;;;3.65;3.33;;;4.90;69.50;;;;;;2098510;28;20021;-59
2021/01/24 03:56:50;;;;;;;3.33;3.10;;;4.90;69.40;;;;;;2098435;28;20458;-59
2021/01/24 03:58:11;;;;;;;4.03;3.72;;;4.80;69.30;;;;;;2099244;28;20085;-59
2021/01/24 03:59:32;;;;;;;4.20;3.17;;;4.80;69.50;;;;;;2092837;28;20107;-59
2021/01/24 04:00:53;;;;;;;3.70;3.40;;;4.90;69.70;;;;;;2099697;28;20021;-59
2021/01/24 04:02:14;;;;;;;3.30;3.10;;;4.90;69.70;;;;;;2097228;28;20426;-59
2021/01/24 04:03:35;;;;;;;3.95;3.55;;;4.80;69.70;;;;;;2093955;28;20036;-59
2021/01/24 04:04:56;;;;;;;3.95;3.65;;;4.80;69.80;;;;;;2099932;28;20027;-59
2021/01/24 04:06:17;;;;;;;4.43;4.05;;;4.90;69.80;;;;;;2091515;28;20056;-59
2021/01/24 04:07:38;;;;;;;5.03;4.15;;;4.90;69.90;;;;;;2097200;28;20219;-59
2021/01/24 04:08:59;;;;;;;4.80;4.25;;;4.90;69.90;;;;;;2096912;28;20063;-59
2021/01/24 04:10:20;;;;;;;5.32;4.53;;;4.90;69.90;;;;;;2095049;28;20396;-59
2021/01/24 04:11:40;;;;;;;5.55;5.05;;;4.90;70.00;;;;;;2097258;28;20033;-58
2021/01/24 04:13:01;;;;;;;5.05;4.55;;;4.90;70.10;;;;;;2097233;28;20140;-59
2021/01/24 04:14:22;;;;;;;6.15;4.97;;;4.90;70.10;;;;;;2094430;28;20035;-59
2021/01/24 04:15:43;;;;;;;5.72;4.50;;;4.90;70.10;;;;;;2096906;28;20113;-59
2021/01/24 04:17:04;;;;;;;5.25;4.80;;;4.90;70.00;;;;;;2095288;28;20067;-59
2021/01/24 04:18:25;;;;;;;7.18;4.90;;;4.90;70.10;;;;;;2098004;28;20040;-59
2021/01/24 04:19:46;;;;;;;5.55;5.05;;;4.90;70.20;;;;;;2096968;28;20029;-59
2021/01/24 04:21:07;;;;;;;5.32;4.82;;;4.90;70.10;;;;;;2088391;28;20048;-59
2021/01/24 04:22:28;;;;;;;6.43;5.22;;;4.90;70.10;;;;;;2090038;28;20021;-59
2021/01/24 04:23:49;;;;;;;5.65;4.97;;;4.90;70.10;;;;;;2095754;28;20035;-59
2021/01/24 04:25:12;;;;;;;6.43;5.55;;;5.00;70.10;;;;;;2097399;28;20024;-59
2021/01/24 04:26:33;;;;;;;6.82;6.13;;;4.90;70.00;;;;;;2099640;28;20027;-59
2021/01/24 04:27:54;;;;;;;6.38;5.70;;;4.90;70.00;;;;;;2095975;28;20775;-59
2021/01/24 04:29:15;;;;;;;6.40;5.80;;;5.00;70.20;;;;;;2097604;28;20115;-59
2021/01/24 04:30:36;;;;;;;5.97;5.30;;;5.00;70.20;;;;;;2092901;28;20111;-59
2021/01/24 04:31:56;;;;;;;6.22;5.63;;;5.00;70.30;;;;;;2096849;28;20039;-59
2021/01/24 04:33:17;;;;;;;6.63;5.97;;;5.00;70.20;;;;;;2091519;28;20025;-59
2021/01/24 04:34:38;;;;;;;7.85;6.72;;;5.00;70.40;;;;;;2094876;28;20104;-59
2021/01/24 04:35:59;;;;;;;7.75;6.47;;;5.00;70.30;;;;;;2096894;28;20025;-59
2021/01/24 04:37:20;;;;;;;7.53;6.40;;;5.00;70.30;;;;;;2091443;28;20051;-59
2021/01/24 04:38:41;;;;;;;7.70;6.47;;;5.00;70.30;;;;;;2097057;28;20017;-59
2021/01/24 04:40:02;;;;;;;7.40;6.70;;;5.00;70.30;;;;;;2091833;28;20029;-59
2021/01/24 04:41:25;;;;;;;6.88;6.18;;;5.00;70.20;;;;;;2097392;28;20035;-59
2021/01/24 04:42:46;;;;;;;7.03;6.32;;;5.00;70.20;;;;;;2096746;28;20083;-59
2021/01/24 04:44:07;;;;;;;6.70;6.07;;;5.00;70.20;;;;;;2095254;28;20468;-59
2021/01/24 04:45:29;;;;;;;6.97;6.25;;;5.00;70.90;;;;;;2091586;28;20171;-59
2021/01/24 04:46:50;;;;;;;7.80;6.30;;;5.00;70.20;;;;;;2096966;28;20028;-59
2021/01/24 04:48:11;;;;;;;7.13;6.43;;;5.00;70.20;;;;;;2097393;28;20033;-59
2021/01/24 04:49:34;;;;;;;7.00;6.30;;;5.00;70.20;;;;;;2099362;28;20060;-59
2021/01/24 04:50:54;;;;;;;7.45;6.60;;;5.00;70.10;;;;;;2096695;28;20032;-59
2021/01/24 04:52:15;;;;;;;7.20;6.50;;;5.10;70.20;;;;;;2090488;28;20620;-59
2021/01/24 04:53:38;;;;;;;6.88;6.15;;;5.00;70.20;;;;;;2097011;28;20048;-59
2021/01/24 04:55:01;;;;;;;7.88;7.07;;;5.00;70.20;;;;;;2096398;28;20356;-59
2021/01/24 04:56:23;;;;;;;7.00;6.22;;;5.00;70.20;;;;;;2092766;28;20028;-59
2021/01/24 04:57:45;;;;;;;6.25;5.65;;;5.00;70.20;;;;;;2096784;28;20112;-59
2021/01/24 04:59:06;;;;;;;6.55;5.75;;;5.00;70.20;;;;;;2095809;28;20025;-59
2021/01/24 05:00:27;;;;;;;6.25;5.65;;;5.00;70.20;;;;;;2090306;28;20052;-59
2021/01/24 05:01:49;;;;;;;7.60;6.85;;;5.00;70.20;;;;;;2096850;28;20035;-59
2021/01/24 05:03:10;;;;;;;6.90;6.20;;;5.00;70.40;;;;;;2096572;28;20544;-59
2021/01/24 05:04:32;;;;;;;6.93;6.22;;;5.10;70.50;;;;;;2096622;28;20048;-60
2021/01/24 05:05:53;;;;;;;7.35;6.55;;;5.10;70.50;;;;;;2096340;28;20024;-59
2021/01/24 05:07:14;;;;;;;8.70;6.95;;;5.10;70.50;;;;;;2095889;28;20111;-59
2021/01/24 05:08:34;;;;;;;8.25;6.75;;;5.10;70.60;;;;;;2097419;28;20032;-59
2021/01/24 05:09:57;;;;;;;11.05;7.63;;;5.00;70.40;;;;;;2096871;28;20039;-60
2021/01/24 05:11:20;;;;;;;9.48;7.80;;;5.10;70.50;;;;;;2090769;28;20031;-59
2021/01/24 05:12:45;;;;;;;10.23;7.85;;;5.10;70.70;;;;;;2088632;28;20028;-60
2021/01/24 05:14:17;;;;;;;11.75;8.43;;;5.10;70.60;;;;;;2095722;28;20360;-60
2021/01/24 05:15:38;;;;;;;10.43;8.73;;;5.10;70.90;;;;;;2093888;28;20024;-60
2021/01/24 05:17:00;;;;;;;9.52;7.85;;;5.10;70.50;;;;;;2097776;28;20032;-60
2021/01/24 05:18:22;;;;;;;12.38;9.68;;;5.10;70.40;;;;;;2091129;28;20044;-57
2021/01/24 05:19:44;;;;;;;11.73;9.30;;;5.10;70.60;;;;;;2096890;28;20028;-60
2021/01/24 05:21:08;;;;;;;12.25;8.60;;;5.10;70.60;;;;;;2095682;28;20029;-60
2021/01/24 05:22:29;;;;;;;12.07;9.38;;;5.10;70.70;;;;;;2097292;28;20052;-59
2021/01/24 05:23:50;;;;;;;10.63;8.73;;;5.10;70.60;;;;;;2096762;28;20025;-60
2021/01/24 05:25:12;;;;;;;11.95;9.38;;;5.10;70.60;;;;;;2092839;28;20371;-60
2021/01/24 05:26:32;;;;;;;13.18;9.35;;;5.10;70.70;;;;;;2093413;28;20051;-60
2021/01/24 05:27:53;;;;;;;11.35;9.07;;;5.10;70.70;;;;;;2097420;28;20108;-60
2021/01/24 05:29:24;;;;;;;14.55;9.82;;;5.10;70.70;;;;;;2097620;28;20032;-60
2021/01/24 05:30:45;;;;;;;11.20;8.48;;;5.10;71.10;;;;;;2095542;28;20024;-60
2021/01/24 05:32:07;;;;;;;12.77;9.77;;;5.10;70.80;;;;;;2095661;28;20372;-60
2021/01/24 05:33:28;;;;;;;15.63;11.13;;;5.10;70.70;;;;;;2092290;28;20178;-58
2021/01/24 05:34:51;;;;;;;15.38;10.20;;;5.10;70.60;;;;;;2097227;28;20029;-59
2021/01/24 05:36:12;;;;;;;12.23;9.27;;;5.10;70.70;;;;;;2096768;28;20032;-59
2021/01/24 05:37:37;;;;;;;12.85;9.45;;;5.10;70.70;;;;;;2084905;28;20033;-59
2021/01/24 05:39:02;;;;;;;11.77;8.80;;;5.10;70.90;;;;;;2094137;28;20043;-59
2021/01/24 05:40:23;;;;;;;9.05;7.47;;;5.10;70.80;;;;;;2091954;28;20079;-60
2021/01/24 05:41:48;;;;;;;9.50;7.65;;;5.10;70.70;;;;;;2095819;28;20032;-59
2021/01/24 05:43:09;;;;;;;10.45;7.57;;;5.10;70.70;;;;;;2097351;28;20028;-58
2021/01/24 05:44:30;;;;;;;10.43;7.82;;;5.10;70.70;;;;;;2094786;28;20036;-59
2021/01/24 05:45:51;;;;;;;8.05;6.80;;;5.10;70.60;;;;;;2096972;28;20060;-60
2021/01/24 05:47:13;;;;;;;9.73;7.47;;;5.10;70.60;;;;;;2095806;28;20033;-58
2021/01/24 05:48:35;;;;;;;9.95;8.00;;;5.20;70.60;;;;;;2098414;28;20457;-59
2021/01/24 05:49:57;;;;;;;11.00;8.18;;;5.20;70.70;;;;;;2088711;28;20514;-60
2021/01/24 05:51:18;;;;;;;8.95;7.55;;;5.10;70.70;;;;;;2089716;28;20037;-58
2021/01/24 05:52:41;;;;;;;9.93;8.10;;;5.10;70.70;;;;;;2096936;28;20351;-60
2021/01/24 05:54:03;;;;;;;11.07;7.75;;;5.10;70.60;;;;;;2095021;28;20052;-59
2021/01/24 05:55:35;;;;;;;8.90;7.88;;;5.10;70.60;;;;;;2098289;28;20365;-58
2021/01/24 05:56:57;;;;;;;10.82;8.07;;;5.20;71.00;;;;;;2095696;28;20084;-60
2021/01/24 05:58:25;;;;;;;10.05;7.90;;;5.20;70.70;;;;;;2101378;28;20063;-60
2021/01/24 05:59:50;;;;;;;10.65;8.38;;;5.20;70.70;;;;;;2093842;28;20023;-60
2021/01/24 06:01:13;;;;;;;9.95;7.95;;;5.10;70.60;;;;;;2096254;28;20040;-60
2021/01/24 06:02:35;;;;;;;9.95;8.15;;;5.20;70.70;;;;;;2098745;28;20115;-61
2021/01/24 06:04:00;;;;;;;10.80;8.38;;;5.20;70.70;;;;;;2096906;28;20143;-60
2021/01/24 06:05:22;;;;;;;12.15;9.07;;;5.20;70.90;;;;;;2092029;28;20033;-60
2021/01/24 06:06:43;;;;;;;11.82;9.40;;;5.20;70.90;;;;;;2093695;28;20063;-60
2021/01/24 06:08:08;;;;;;;13.93;8.93;;;5.20;71.00;;;;;;2095108;28;20497;-60
2021/01/24 06:09:31;;;;;;;10.68;8.70;;;5.20;71.00;;;;;;2094475;28;20051;-60
2021/01/24 06:10:53;;;;;;;12.50;9.05;;;5.20;70.90;;;;;;2097964;28;20036;-60
2021/01/24 06:12:17;;;;;;;13.27;9.32;;;5.20;71.00;;;;;;2098428;28;20450;-60
2021/01/24 06:13:41;;;;;;;11.90;9.50;;;5.20;71.00;;;;;;2098904;28;20055;-61
2021/01/24 06:15:03;;;;;;;13.35;9.63;;;5.20;71.10;;;;;;2095976;28;20078;-61
2021/01/24 06:16:34;;;;;;;11.57;8.73;;;5.20;71.00;;;;;;2093873;28;20029;-61
2021/01/24 06:18:00;;;;;;;13.90;10.00;;;5.20;71.10;;;;;;2097893;28;20021;-62
2021/01/24 06:19:23;;;;;;;12.02;8.80;;;5.20;71.20;;;;;;2092460;28;20029;-61
2021/01/24 06:20:52;;;;;;;14.00;9.52;;;5.20;71.00;;;;;;2097890;28;20025;-61
2021/01/24 06:22:18;;;;;;;10.98;8.85;;;5.20;71.20;;;;;;2098090;28;20032;-62
2021/01/24 06:23:53;;;;;;;11.52;9.15;;;5.20;71.10;;;;;;2096014;28;20033;-61
2021/01/24 06:25:23;;;;;;;11.32;8.80;;;5.20;71.20;;;;;;2098422;28;20029;-61
2021/01/24 06:26:46;;;;;;;;;;;5.20;71.20;;;;;;2098926;28;20032;-62
2021/01/24 06:28:09;;;;;;;9.90;7.72;;;5.20;71.90;;;;;;2092101;28;19908;-61
2021/01/24 06:29:31;;;;;;;10.32;8.20;;;5.30;70.90;;;;;;2093229;28;20063;-61
2021/01/24 06:30:52;;;;;;;13.02;8.70;;;5.30;70.90;;;;;;2096830;28;20040;-61
2021/01/24 06:32:24;;;;;;;12.35;9.60;;;5.30;70.80;;;;;;2097776;28;20086;-61
2021/01/24 06:33:50;;;;;;;11.10;8.68;;;5.30;71.20;;;;;;2098496;28;20032;-61
2021/01/24 06:35:19;;;;;;;10.85;8.70;;;5.30;71.00;;;;;;2097828;28;20667;-61
2021/01/24 06:37:04;;;;;;;10.68;9.15;;;5.30;71.20;;;;;;2096614;28;20037;-61
2021/01/24 06:38:32;;;;;;;9.10;7.57;;;5.30;71.70;;;;;;2094436;28;20032;-61
2021/01/24 06:39:55;;;;;;;11.45;8.32;;;5.30;71.20;;;;;;2095906;28;20029;-61
2021/01/24 06:41:43;;;;;;;10.10;9.00;;;5.30;71.00;;;;;;2096684;28;20033;-61
2021/01/24 06:43:04;;;;;;;9.73;7.85;;;5.30;71.50;;;;;;2102227;28;20079;-61
2021/01/24 06:44:39;;;;;;;11.73;8.77;;;5.30;71.00;;;;;;2095348;28;20025;-61
2021/01/24 06:46:00;;;;;;;11.48;8.63;;;5.30;71.40;;;;;;2096802;28;20525;-61
2021/01/24 06:47:39;;;;;;;10.93;8.38;;;5.30;71.00;;;;;;2092363;28;20083;-61
2021/01/24 06:49:00;;;;;;;11.75;9.15;;;5.30;71.50;;;;;;2098359;28;20033;-61
2021/01/24 06:50:37;;;;;;;12.35;8.95;;;5.30;71.20;;;;;;2092449;28;20187;-60
2021/01/24 06:52:22;;;;;;;9.98;8.40;;;5.30;71.60;;;;;;2098146;28;20032;-61
2021/01/24 06:53:47;;;;;;;9.48;8.13;;;5.30;71.40;;;;;;2095990;28;20033;-61
2021/01/24 06:55:26;;;;;;;10.70;9.02;;;5.30;71.20;;;;;;2096264;28;20103;-60
2021/01/24 06:56:47;;;;;;;10.73;9.00;;;5.40;71.50;;;;;;2095257;28;20027;-60
2021/01/24 06:58:31;;;;;;;11.00;8.75;;;5.40;70.90;;;;;;2096745;28;20029;-60
2021/01/24 07:00:20;;;;;;;9.23;8.18;;;5.30;71.20;;;;;;2096143;28;20033;-60
2021/01/24 07:01:42;;;;;;;11.02;8.48;;;5.30;71.40;;;;;;2096516;28;20029;-61
2021/01/24 07:03:19;;;;;;;9.50;8.23;;;5.40;70.90;;;;;;2095127;28;20087;-60
2021/01/24 07:04:40;;;;;;;11.23;8.73;;;5.40;71.10;;;;;;2097575;28;20116;-61
2021/01/24 07:06:33;;;;;;;10.15;8.43;;;5.40;70.90;;;;;;2096492;28;20043;-60
2021/01/24 07:07:54;;;;;;;10.30;8.50;;;5.40;71.40;;;;;;2098063;28;20033;-61
2021/01/24 07:09:33;;;;;;;11.63;8.82;;;5.40;70.90;;;;;;2097389;28;20098;-60
2021/01/24 07:10:53;;;;;;;13.70;10.13;;;5.40;71.30;;;;;;2097949;28;20040;-60
2021/01/24 07:12:14;;;;;;;11.65;9.32;;;5.40;71.10;;;;;;2090494;28;20464;-60
2021/01/24 07:13:36;;;;;;;10.23;8.57;;;5.40;71.10;;;;;;2095887;28;20072;-61
2021/01/24 07:14:57;;;;;;;11.90;9.52;;;5.40;71.10;;;;;;2098353;28;20024;-60
2021/01/24 07:16:18;;;;;;;10.52;9.43;;;5.40;71.20;;;;;;2097707;28;20119;-60
2021/01/24 07:17:39;;;;;;;10.77;9.63;;;5.40;71.30;;;;;;2098047;28;20019;-60
2021/01/24 07:19:00;;;;;;;13.25;10.75;;;5.40;71.90;;;;;;2097889;28;20024;-59